Time;durP1;ratioP1;P1;durP2;ratioP2;P2;SDS_P1;SDS_P2;PMS_P1;PMS_P2;Temp;Humidity;BMP_temperature;BMP_pressure;BME280_temperature;BME280_humidity;BME280_pressure;Samples;Min_cycle;Max_cycle;Signal;HPM_P1;HPM_P2
2021/10/12 00:01:34;;;;;;;42.37;26.67;;;7.50;99.90;;;;;;5121218;28;20242;-81
2021/10/12 00:04:00;;;;;;;38.67;26.77;;;7.50;99.90;;;;;;5122634;28;20281;-81
2021/10/12 00:06:25;;;;;;;44.43;27.97;;;7.50;99.90;;;;;;5122066;28;20177;-81
2021/10/12 00:08:51;;;;;;;46.17;26.33;;;7.50;99.90;;;;;;5120416;28;20209;-81
2021/10/12 00:11:17;;;;;;;48.63;27.17;;;7.50;99.90;;;;;;5120425;28;20189;-82
2021/10/12 00:13:43;;;;;;;44.53;27.00;;;7.50;99.90;;;;;;5120690;28;20179;-82
2021/10/12 00:16:08;;;;;;;40.77;26.20;;;7.50;99.90;;;;;;5122113;28;20200;-81
2021/10/12 00:18:34;;;;;;;42.40;26.13;;;7.60;99.90;;;;;;5121631;28;20723;-81
2021/10/12 00:21:00;;;;;;;38.17;25.73;;;7.60;99.90;;;;;;5120580;28;20180;-81
2021/10/12 00:23:26;;;;;;;38.97;25.33;;;7.50;99.90;;;;;;5121128;28;20183;-81
2021/10/12 00:25:51;;;;;;;41.00;26.67;;;7.50;99.90;;;;;;5119796;28;20180;-81
2021/10/12 00:28:17;;;;;;;46.73;27.47;;;7.50;99.90;;;;;;5120790;28;20169;-81
2021/10/12 00:30:42;;;;;;;43.03;26.27;;;7.50;99.90;;;;;;5119464;28;20172;-81
2021/10/12 00:33:08;;;;;;;46.27;27.90;;;7.40;99.90;;;;;;5119208;28;20193;-81
2021/10/12 00:35:34;;;;;;;45.13;28.10;;;7.40;99.90;;;;;;5119242;28;20389;-81
2021/10/12 00:38:00;;;;;;;44.13;27.63;;;7.40;99.90;;;;;;5120905;28;20165;-81
2021/10/12 00:40:25;;;;;;;42.90;27.90;;;7.40;99.90;;;;;;5119508;28;20173;-81
2021/10/12 00:42:51;;;;;;;44.27;27.60;;;7.40;99.90;;;;;;5121126;28;20169;-81
2021/10/12 00:45:17;;;;;;;40.93;26.73;;;7.40;99.90;;;;;;5119363;28;20228;-81
2021/10/12 00:48:01;;;;;;;42.80;26.03;;;7.40;99.90;;;;;;5120339;28;20255;-81
2021/10/12 00:50:28;;;;;;;39.17;25.93;;;7.40;99.90;;;;;;5119788;28;20168;-81
2021/10/12 00:52:54;;;;;;;43.97;27.60;;;7.40;99.90;;;;;;5119204;28;20209;-81
2021/10/12 00:55:21;;;;;;;46.73;27.77;;;7.40;99.90;;;;;;5120557;28;20234;-81
2021/10/12 00:57:46;;;;;;;40.73;25.27;;;7.40;99.90;;;;;;5120932;28;20164;-81
2021/10/12 01:00:12;;;;;;;38.47;24.60;;;7.40;99.90;;;;;;5118766;28;20203;-81
2021/10/12 01:02:38;;;;;;;45.13;26.50;;;7.50;99.90;;;;;;5118726;28;20177;-81
2021/10/12 01:05:05;;;;;;;39.33;24.20;;;7.50;99.90;;;;;;5118619;28;20179;-81
2021/10/12 01:07:31;;;;;;;40.67;24.37;;;7.40;99.90;;;;;;5119174;28;20181;-81
2021/10/12 01:09:57;;;;;;;41.73;25.40;;;7.40;99.90;;;;;;5118913;28;20567;-81
2021/10/12 01:12:23;;;;;;;39.77;23.63;;;7.40;99.90;;;;;;5120124;28;20175;-81
2021/10/12 01:14:49;;;;;;;44.17;24.77;;;7.40;99.90;;;;;;5118697;28;20572;-81
2021/10/12 01:17:15;;;;;;;41.53;23.17;;;7.40;99.90;;;;;;5120670;28;20175;-81
2021/10/12 01:19:40;;;;;;;36.80;22.87;;;7.40;99.90;;;;;;5119087;28;20193;-81
2021/10/12 01:22:06;;;;;;;32.30;21.47;;;7.40;99.90;;;;;;5118692;28;20173;-81
2021/10/12 01:24:32;;;;;;;31.60;19.33;;;7.30;99.90;;;;;;5119221;28;20220;-81
2021/10/12 01:26:57;;;;;;;33.20;20.00;;;7.30;99.90;;;;;;5118901;28;20183;-81
2021/10/12 01:29:23;;;;;;;30.93;19.70;;;7.20;99.90;;;;;;5118664;28;20195;-81
2021/10/12 01:31:49;;;;;;;30.77;19.20;;;7.20;99.90;;;;;;5118693;28;20185;-81
2021/10/12 01:34:20;;;;;;;30.77;18.13;;;7.20;99.90;;;;;;5119660;27;20621;-81
2021/10/12 01:36:47;;;;;;;30.13;18.63;;;7.20;99.90;;;;;;5118385;28;20212;-81
2021/10/12 01:39:14;;;;;;;29.90;19.27;;;7.20;99.90;;;;;;5119144;28;20286;-81
2021/10/12 01:41:42;;;;;;;31.77;19.10;;;7.10;99.90;;;;;;5119905;28;20173;-81
2021/10/12 01:44:12;;;;;;;29.53;19.40;;;7.10;99.90;;;;;;5119434;28;20207;-81
2021/10/12 01:46:38;;;;;;;29.90;18.83;;;7.10;99.90;;;;;;5119195;28;20183;-81
2021/10/12 01:49:05;;;;;;;33.50;20.30;;;7.10;99.90;;;;;;5120458;28;20192;-81
2021/10/12 01:51:31;;;;;;;32.03;19.70;;;7.10;99.90;;;;;;5119610;28;20179;-81
2021/10/12 01:53:56;;;;;;;30.23;19.43;;;7.20;99.90;;;;;;5119921;28;20171;-81
2021/10/12 01:56:22;;;;;;;32.37;19.70;;;7.30;99.90;;;;;;5121077;28;20203;-82
2021/10/12 01:58:50;;;;;;;30.93;18.87;;;7.30;99.90;;;;;;5121902;28;20252;-81
2021/10/12 02:01:24;;;;;;;29.20;17.80;;;7.30;99.90;;;;;;5120473;28;20183;-81
2021/10/12 02:03:50;;;;;;;25.10;17.90;;;7.20;99.90;;;;;;5118166;28;20223;-81
2021/10/12 02:06:16;;;;;;;26.97;17.27;;;7.30;99.90;;;;;;5118237;28;20544;-81
2021/10/12 02:08:42;;;;;;;26.63;17.47;;;7.20;99.90;;;;;;5117939;28;20856;-81
2021/10/12 02:11:08;;;;;;;31.63;19.27;;;7.20;99.90;;;;;;5118199;28;20634;-81
2021/10/12 02:13:34;;;;;;;30.93;18.03;;;7.20;99.90;;;;;;5116718;28;20234;-81
2021/10/12 02:16:00;;;;;;;29.83;18.20;;;7.20;99.90;;;;;;5117740;28;20196;-81
2021/10/12 02:18:25;;;;;;;26.73;17.87;;;7.10;99.90;;;;;;5115479;28;20197;-81
2021/10/12 02:20:51;;;;;;;26.63;18.50;;;7.00;99.90;;;;;;5116120;28;20225;-81
2021/10/12 02:23:18;;;;;;;26.67;18.43;;;7.00;99.90;;;;;;5115662;28;20186;-81
2021/10/12 02:25:44;;;;;;;30.03;18.97;;;7.00;99.90;;;;;;5118654;28;20690;-81
2021/10/12 02:28:10;;;;;;;29.07;19.03;;;7.00;99.90;;;;;;5119947;28;20863;-81
2021/10/12 02:30:36;;;;;;;27.63;18.40;;;7.10;99.90;;;;;;5119310;28;20176;-81
2021/10/12 02:33:02;;;;;;;31.03;19.33;;;7.10;99.90;;;;;;5119136;28;20192;-81
2021/10/12 02:35:28;;;;;;;27.37;17.83;;;7.10;99.90;;;;;;5118392;28;20207;-81
2021/10/12 02:37:55;;;;;;;27.77;17.60;;;7.10;99.90;;;;;;5119586;28;20258;-81
2021/10/12 02:40:21;;;;;;;27.13;18.57;;;7.10;99.90;;;;;;5118156;28;20673;-81
2021/10/12 02:42:47;;;;;;;25.90;17.63;;;7.10;99.90;;;;;;5125619;28;20206;-81
2021/10/12 02:45:12;;;;;;;27.97;18.53;;;7.10;99.90;;;;;;5125109;28;20180;-81
2021/10/12 02:47:38;;;;;;;30.57;18.80;;;7.10;99.90;;;;;;5125133;28;20180;-81
2021/10/12 02:50:05;;;;;;;29.57;18.60;;;7.10;99.90;;;;;;5116150;28;20203;-81
2021/10/12 02:52:31;;;;;;;34.20;18.77;;;7.20;99.90;;;;;;5117488;28;20613;-81
2021/10/12 02:54:57;;;;;;;30.40;19.80;;;7.20;99.90;;;;;;5118947;28;20200;-81
2021/10/12 02:57:23;;;;;;;30.07;18.10;;;7.30;99.90;;;;;;5118221;28;20210;-81
2021/10/12 02:59:49;;;;;;;34.00;19.17;;;7.30;99.90;;;;;;5118636;28;20195;-81
2021/10/12 03:02:14;;;;;;;30.60;18.93;;;7.30;99.90;;;;;;5118244;28;20202;-81
2021/10/12 03:04:40;;;;;;;30.67;18.40;;;7.30;99.90;;;;;;5118294;28;20175;-81
2021/10/12 03:07:06;;;;;;;33.13;19.07;;;7.30;99.90;;;;;;5118407;28;20223;-81
2021/10/12 03:09:31;;;;;;;25.90;17.10;;;7.20;99.90;;;;;;5118881;28;20184;-81
2021/10/12 03:11:57;;;;;;;28.00;17.40;;;7.20;99.90;;;;;;5119106;28;20175;-81
2021/10/12 03:14:23;;;;;;;24.20;17.07;;;7.10;99.90;;;;;;5119556;28;20159;-81
2021/10/12 03:16:48;;;;;;;24.87;16.73;;;7.10;99.90;;;;;;5117522;28;20299;-81
2021/10/12 03:19:16;;;;;;;25.73;17.13;;;7.00;99.90;;;;;;5118926;28;20244;-81
2021/10/12 03:21:52;;;;;;;30.30;18.37;;;7.00;99.90;;;;;;5119494;28;20176;-83
2021/10/12 03:24:18;;;;;;;24.30;16.73;;;6.90;99.90;;;;;;5118788;28;20168;-82
2021/10/12 03:26:43;;;;;;;27.63;17.63;;;6.90;99.90;;;;;;5116903;28;20511;-81
2021/10/12 03:29:09;;;;;;;23.87;16.13;;;6.80;99.90;;;;;;5117328;28;20194;-81
2021/10/12 03:31:35;;;;;;;25.03;16.53;;;6.80;99.90;;;;;;5117961;28;20189;-81
2021/10/12 03:34:00;;;;;;;29.30;18.60;;;6.80;99.90;;;;;;5120029;28;20177;-81
2021/10/12 03:36:26;;;;;;;27.03;17.00;;;6.70;99.90;;;;;;5125636;28;20203;-81
2021/10/12 03:38:51;;;;;;;27.13;16.90;;;6.70;99.90;;;;;;5122637;28;20191;-81
2021/10/12 03:41:17;;;;;;;27.80;18.03;;;6.60;99.90;;;;;;5118935;28;20591;-82
2021/10/12 03:43:43;;;;;;;24.93;17.43;;;6.60;99.90;;;;;;5117619;28;20172;-81
2021/10/12 03:46:09;;;;;;;27.07;17.30;;;6.50;99.90;;;;;;5116473;28;20270;-81
2021/10/12 03:48:34;;;;;;;24.07;16.63;;;6.50;99.90;;;;;;5116995;28;20292;-81
2021/10/12 03:51:00;;;;;;;24.77;17.87;;;6.40;99.90;;;;;;5117985;28;20172;-81
2021/10/12 03:53:25;;;;;;;26.13;17.70;;;6.40;99.90;;;;;;5118019;28;20167;-81
2021/10/12 03:55:51;;;;;;;28.63;17.13;;;6.20;99.90;;;;;;5117633;28;20202;-81
2021/10/12 03:58:17;;;;;;;31.17;18.07;;;6.30;99.90;;;;;;5116421;28;20236;-81
2021/10/12 04:00:42;;;;;;;25.00;17.50;;;6.30;99.90;;;;;;5117330;28;20176;-81
2021/10/12 04:03:08;;;;;;;28.77;18.23;;;6.20;99.90;;;;;;5121126;28;20173;-81
2021/10/12 04:05:34;;;;;;;28.83;18.60;;;6.20;99.90;;;;;;5121513;28;20221;-81
2021/10/12 04:07:59;;;;;;;27.07;18.57;;;6.20;99.90;;;;;;5120244;28;20225;-82
2021/10/12 04:10:25;;;;;;;32.60;20.03;;;6.20;99.90;;;;;;5120231;28;20571;-81
2021/10/12 04:12:50;;;;;;;29.23;18.57;;;6.20;99.90;;;;;;5119975;28;20630;-80
2021/10/12 04:15:17;;;;;;;28.63;18.67;;;6.20;99.90;;;;;;5121391;28;20203;-81
2021/10/12 04:17:43;;;;;;;33.73;20.00;;;6.20;99.90;;;;;;5120573;28;20167;-81
2021/10/12 04:20:09;;;;;;;29.27;18.63;;;6.30;99.90;;;;;;5122078;28;20429;-81
2021/10/12 04:22:35;;;;;;;32.07;20.17;;;6.20;99.90;;;;;;5122587;28;20191;-81
2021/10/12 04:25:01;;;;;;;33.87;20.67;;;6.20;99.90;;;;;;5123857;28;20414;-81
2021/10/12 04:27:27;;;;;;;36.93;21.03;;;6.30;99.90;;;;;;5121566;28;20171;-81
2021/10/12 04:29:53;;;;;;;31.20;20.70;;;6.30;99.90;;;;;;5121204;28;20218;-81
2021/10/12 04:32:19;;;;;;;34.23;21.60;;;6.30;99.90;;;;;;5121758;28;20210;-81
2021/10/12 04:34:45;;;;;;;32.40;20.83;;;6.30;99.90;;;;;;5122379;28;20321;-81
2021/10/12 04:37:10;;;;;;;31.63;19.63;;;6.30;99.90;;;;;;5121411;28;20235;-81
2021/10/12 04:39:36;;;;;;;33.33;21.30;;;6.10;99.90;;;;;;5122781;28;20270;-80
2021/10/12 04:42:02;;;;;;;35.27;20.97;;;6.20;99.90;;;;;;5123495;28;20232;-81
2021/10/12 04:44:28;;;;;;;38.10;19.90;;;6.20;99.90;;;;;;5125599;28;20202;-80
2021/10/12 04:46:54;;;;;;;38.50;23.30;;;6.20;99.90;;;;;;5135329;28;20232;-80
2021/10/12 04:49:20;;;;;;;35.00;21.37;;;6.40;99.90;;;;;;5135545;28;20196;-80
2021/10/12 04:51:46;;;;;;;33.87;21.20;;;6.30;99.90;;;;;;5133640;28;20182;-80
2021/10/12 04:54:12;;;;;;;36.53;20.73;;;6.30;99.90;;;;;;5119661;28;20211;-80
2021/10/12 04:56:38;;;;;;;35.13;20.87;;;6.30;99.90;;;;;;5119264;28;20660;-81
2021/10/12 04:59:04;;;;;;;35.73;22.40;;;6.30;99.90;;;;;;5119449;28;20192;-81
2021/10/12 05:01:30;;;;;;;32.97;20.47;;;6.30;99.90;;;;;;5118983;28;20621;-80
2021/10/12 05:03:56;;;;;;;31.87;19.50;;;6.30;99.90;;;;;;5120384;28;20183;-81
2021/10/12 05:06:21;;;;;;;36.27;21.20;;;6.30;99.90;;;;;;5119208;28;20209;-80
2021/10/12 05:08:47;;;;;;;34.00;20.97;;;6.30;99.90;;;;;;5120810;28;20557;-80
2021/10/12 05:11:13;;;;;;;34.47;21.70;;;6.30;99.90;;;;;;5119156;28;20633;-81
2021/10/12 05:13:39;;;;;;;47.90;28.30;;;6.30;99.90;;;;;;5119208;28;20179;-80
2021/10/12 05:16:10;;;;;;;48.07;29.37;;;6.30;99.90;;;;;;5118727;28;20212;-80
2021/10/12 05:18:38;;;;;;;40.60;26.40;;;6.30;99.90;;;;;;5118768;28;20282;-80
2021/10/12 05:21:04;;;;;;;42.27;23.70;;;6.30;99.90;;;;;;5118317;28;20176;-80
2021/10/12 05:23:29;;;;;;;36.20;22.00;;;6.30;99.90;;;;;;5118083;28;20629;-80
2021/10/12 05:25:55;;;;;;;38.23;20.57;;;6.40;99.90;;;;;;5119523;28;20176;-81
2021/10/12 05:28:21;;;;;;;34.63;20.70;;;6.40;99.90;;;;;;5119722;28;20176;-80
2021/10/12 05:30:47;;;;;;;36.43;19.63;;;6.40;99.90;;;;;;5118922;27;20216;-81
2021/10/12 05:33:15;;;;;;;35.70;20.43;;;6.40;99.90;;;;;;5116233;28;20198;-79
2021/10/12 05:35:42;;;;;;;34.03;20.20;;;6.40;99.90;;;;;;5115458;28;20284;-80
2021/10/12 05:38:07;;;;;;;35.70;20.73;;;6.40;99.90;;;;;;5114655;28;20544;-80
2021/10/12 05:40:33;;;;;;;36.17;19.87;;;6.40;99.90;;;;;;5118813;28;20887;-80
2021/10/12 05:42:59;;;;;;;36.30;20.70;;;6.30;99.90;;;;;;5118382;28;20175;-80
2021/10/12 05:45:24;;;;;;;33.73;19.33;;;6.40;99.90;;;;;;5117771;28;20186;-80
2021/10/12 05:47:50;;;;;;;31.47;20.03;;;6.40;99.90;;;;;;5119617;28;20175;-80
2021/10/12 05:50:17;;;;;;;30.10;18.53;;;6.40;99.90;;;;;;5117766;28;20208;-81
2021/10/12 05:52:48;;;;;;;39.60;21.43;;;6.40;99.90;;;;;;5118390;28;20262;-81
2021/10/12 05:55:25;;;;;;;33.33;19.50;;;6.50;99.90;;;;;;5120100;28;20191;-81
2021/10/12 05:58:07;;;;;;;32.90;19.40;;;6.40;99.90;;;;;;5119226;28;20173;-80
2021/10/12 06:00:34;;;;;;;31.80;18.17;;;6.50;99.90;;;;;;5118679;28;20177;-81
2021/10/12 06:03:00;;;;;;;32.23;19.17;;;6.50;99.90;;;;;;5119149;28;20175;-81
2021/10/12 06:05:26;;;;;;;32.80;17.93;;;6.50;99.90;;;;;;5118054;28;20179;-81
2021/10/12 06:07:51;;;;;;;27.90;18.27;;;6.50;99.90;;;;;;5118457;28;20309;-81
2021/10/12 06:10:17;;;;;;;33.00;19.50;;;6.50;99.90;;;;;;5117863;28;20248;-81
2021/10/12 06:12:43;;;;;;;29.27;18.80;;;6.60;99.90;;;;;;5120470;28;20650;-81
2021/10/12 06:15:09;;;;;;;30.20;18.40;;;6.40;99.90;;;;;;5119096;28;20610;-81
2021/10/12 06:17:34;;;;;;;32.73;18.27;;;6.60;99.90;;;;;;5121520;28;20177;-81
2021/10/12 06:20:00;;;;;;;32.20;19.63;;;6.60;99.90;;;;;;5120837;28;21005;-81
2021/10/12 06:22:26;;;;;;;28.00;18.67;;;6.70;99.90;;;;;;5120808;28;20171;-80
2021/10/12 06:24:52;;;;;;;33.80;18.17;;;6.80;99.90;;;;;;5120254;28;20300;-81
2021/10/12 06:27:20;;;;;;;31.47;19.87;;;6.80;99.90;;;;;;5117686;28;20212;-81
2021/10/12 06:29:45;;;;;;;36.37;21.27;;;6.80;99.90;;;;;;5118734;28;20200;-80
2021/10/12 06:32:11;;;;;;;36.10;20.53;;;6.80;99.90;;;;;;5120001;28;20664;-80
2021/10/12 06:34:36;;;;;;;35.53;18.67;;;6.80;99.90;;;;;;5119643;28;20177;-80
2021/10/12 06:37:02;;;;;;;34.37;21.97;;;6.80;99.90;;;;;;5119175;28;20182;-80
2021/10/12 06:39:28;;;;;;;31.13;18.77;;;7.00;99.90;;;;;;5120560;28;20232;-81
2021/10/12 06:41:53;;;;;;;37.60;18.80;;;7.00;99.90;;;;;;5121540;28;20172;-80
2021/10/12 06:44:19;;;;;;;33.13;19.43;;;7.10;99.90;;;;;;5120807;28;20582;-81
2021/10/12 06:46:46;;;;;;;37.17;21.43;;;7.10;99.90;;;;;;5119854;28;20186;-81
2021/10/12 06:49:11;;;;;;;35.67;22.07;;;7.20;99.90;;;;;;5119969;28;20201;-81
2021/10/12 06:51:38;;;;;;;29.33;17.97;;;7.20;99.90;;;;;;5120261;28;20493;-80
2021/10/12 06:54:03;;;;;;;28.07;17.53;;;7.20;99.90;;;;;;5121938;28;20209;-80
2021/10/12 06:56:31;;;;;;;33.13;18.23;;;7.20;99.90;;;;;;5120467;28;20606;-80
2021/10/12 06:58:57;;;;;;;30.87;17.10;;;7.20;99.90;;;;;;5118598;28;20199;-80
2021/10/12 07:01:22;;;;;;;32.77;17.87;;;7.20;99.90;;;;;;5120116;28;20179;-81
2021/10/12 07:03:48;;;;;;;31.17;19.17;;;7.20;99.90;;;;;;5118747;28;20175;-80
2021/10/12 07:06:13;;;;;;;31.23;18.90;;;7.30;99.90;;;;;;5118871;28;20222;-81
2021/10/12 07:08:39;;;;;;;31.43;18.97;;;7.30;99.90;;;;;;5119227;28;20541;-80
2021/10/12 07:11:05;;;;;;;29.80;17.50;;;7.40;99.90;;;;;;5119003;28;20210;-80
2021/10/12 07:13:30;;;;;;;31.53;18.03;;;7.40;99.90;;;;;;5120733;28;20199;-81
2021/10/12 07:15:56;;;;;;;28.80;17.77;;;7.40;99.90;;;;;;5120275;28;20261;-80
2021/10/12 07:18:25;;;;;;;28.60;16.33;;;7.40;99.90;;;;;;5119880;28;20177;-80
2021/10/12 07:20:51;;;;;;;30.63;17.07;;;7.40;99.90;;;;;;5117808;28;20173;-80
2021/10/12 07:23:17;;;;;;;31.67;19.73;;;7.50;99.90;;;;;;5118729;28;20183;-80
2021/10/12 07:25:44;;;;;;;36.00;22.37;;;7.40;99.90;;;;;;5121619;28;20195;-81
2021/10/12 07:28:10;;;;;;;33.47;20.50;;;7.40;99.90;;;;;;5119625;28;20183;-81
2021/10/12 07:30:36;;;;;;;28.50;18.33;;;7.40;99.90;;;;;;5120860;28;20209;-82
2021/10/12 07:33:02;;;;;;;27.73;16.93;;;7.40;99.90;;;;;;5120099;28;20201;-81
2021/10/12 07:35:27;;;;;;;33.03;21.07;;;7.40;99.90;;;;;;5118619;28;20203;-81
2021/10/12 07:37:55;;;;;;;27.50;16.37;;;7.40;99.90;;;;;;5124073;28;20175;-81
2021/10/12 07:40:21;;;;;;;26.80;17.00;;;7.40;99.90;;;;;;5123462;28;20200;-81
2021/10/12 07:42:46;;;;;;;24.60;15.83;;;7.40;99.90;;;;;;5124355;28;20168;-81
2021/10/12 07:45:12;;;;;;;32.43;18.17;;;7.40;99.90;;;;;;5124207;28;20195;-81
2021/10/12 07:47:38;;;;;;;27.30;18.37;;;7.40;99.90;;;;;;5124164;28;20177;-81
2021/10/12 07:50:05;;;;;;;31.10;18.60;;;7.40;99.90;;;;;;5122469;28;20598;-81
2021/10/12 07:52:32;;;;;;;34.47;18.97;;;7.40;99.90;;;;;;5122019;28;20216;-82
2021/10/12 07:55:12;;;;;;;33.23;17.67;;;7.40;99.90;;;;;;5122804;28;20222;-81
2021/10/12 07:57:38;;;;;;;32.00;18.60;;;7.40;99.90;;;;;;5124109;28;20188;-81
2021/10/12 08:00:04;;;;;;;29.43;18.37;;;7.40;99.90;;;;;;5122871;28;20200;-81
2021/10/12 08:02:30;;;;;;;34.10;19.57;;;7.40;99.90;;;;;;5123301;28;20182;-81
2021/10/12 08:04:56;;;;;;;32.07;18.17;;;7.50;99.90;;;;;;5123731;28;20204;-81
2021/10/12 08:07:22;;;;;;;30.60;17.70;;;7.40;99.90;;;;;;5125050;28;20165;-81
2021/10/12 08:09:49;;;;;;;28.27;18.17;;;7.50;99.90;;;;;;5123528;28;20225;-81
2021/10/12 08:12:14;;;;;;;28.17;17.57;;;7.60;99.90;;;;;;5125332;28;20220;-81
2021/10/12 08:14:44;;;;;;;35.03;20.37;;;7.60;99.90;;;;;;5122882;28;20642;-81
2021/10/12 08:17:09;;;;;;;31.73;18.77;;;7.50;99.90;;;;;;5124508;28;20179;-81
2021/10/12 08:19:35;;;;;;;29.37;17.03;;;7.60;99.90;;;;;;5124195;28;20226;-81
2021/10/12 08:22:02;;;;;;;27.30;18.10;;;7.50;99.90;;;;;;5124549;28;20175;-81
2021/10/12 08:24:27;;;;;;;35.87;21.33;;;7.50;99.90;;;;;;5123104;28;20176;-82
2021/10/12 08:26:53;;;;;;;35.80;18.30;;;7.60;99.90;;;;;;5124296;28;20175;-81
2021/10/12 08:29:19;;;;;;;34.57;23.77;;;7.50;99.90;;;;;;5124979;28;20191;-81
2021/10/12 08:31:46;;;;;;;29.73;17.73;;;7.50;99.90;;;;;;5122188;28;20174;-81
2021/10/12 08:34:13;;;;;;;34.77;23.87;;;7.50;99.90;;;;;;5127094;28;20172;-81
2021/10/12 08:36:39;;;;;;;60.47;40.97;;;7.40;99.90;;;;;;5128621;28;20203;-81
2021/10/12 08:39:07;;;;;;;31.00;21.07;;;7.50;99.90;;;;;;5128776;28;20226;-81
2021/10/12 08:41:37;;;;;;;27.87;17.60;;;7.50;99.90;;;;;;5126430;28;20171;-81
2021/10/12 08:44:03;;;;;;;24.60;16.13;;;7.60;99.90;;;;;;5129316;28;20168;-81
2021/10/12 08:46:30;;;;;;;31.37;19.70;;;7.70;99.90;;;;;;5123814;28;20182;-82
2021/10/12 08:48:57;;;;;;;29.80;17.57;;;7.70;99.90;;;;;;5121322;28;20198;-81
2021/10/12 08:51:25;;;;;;;26.47;17.43;;;7.70;99.90;;;;;;5118495;28;20648;-81
2021/10/12 08:53:51;;;;;;;20.17;15.03;;;7.60;99.90;;;;;;5117532;28;20163;-82
2021/10/12 08:56:16;;;;;;;53.10;39.60;;;7.70;99.90;;;;;;5117727;28;20572;-81
2021/10/12 08:58:42;;;;;;;47.60;30.33;;;7.80;99.90;;;;;;5126218;28;20646;-82
2021/10/12 09:01:17;;;;;;;30.37;19.23;;;7.80;99.90;;;;;;5133858;28;20179;-81
2021/10/12 09:06:30;;;;;;;25.27;16.60;;;7.70;99.90;;;;;;5135004;28;20186;-81
2021/10/12 09:09:05;;;;;;;91.57;52.23;;;7.70;99.90;;;;;;5123815;28;20286;-82
2021/10/12 09:11:32;;;;;;;21.23;14.70;;;7.70;99.90;;;;;;5124193;28;20174;-82
2021/10/12 09:14:11;;;;;;;27.00;17.00;;;7.50;99.90;;;;;;5125580;28;20194;-82
2021/10/12 09:16:43;;;;;;;26.63;14.07;;;7.60;99.90;;;;;;5126569;28;20188;-82
2021/10/12 09:19:13;;;;;;;25.00;15.77;;;7.50;99.90;;;;;;5125082;28;20220;-81
2021/10/12 09:21:49;;;;;;;21.17;12.83;;;7.50;99.90;;;;;;5125077;28;20168;-82
2021/10/12 09:24:20;;;;;;;18.33;11.97;;;7.60;99.90;;;;;;5123443;28;20175;-82
2021/10/12 09:26:59;;;;;;;21.30;13.67;;;7.50;99.90;;;;;;5123671;28;20250;-82
2021/10/12 09:29:35;;;;;;;15.97;10.30;;;7.60;99.90;;;;;;5122625;28;20548;-82
2021/10/12 09:32:01;;;;;;;17.73;11.80;;;7.60;99.90;;;;;;5122789;28;20256;-82
2021/10/12 09:34:28;;;;;;;22.83;16.03;;;7.60;99.90;;;;;;5122780;28;20168;-82
2021/10/12 09:36:54;;;;;;;12.10;9.17;;;7.70;99.90;;;;;;5122630;28;20196;-82
2021/10/12 09:39:45;;;;;;;12.17;9.70;;;7.80;99.90;;;;;;5124395;28;20263;-82
2021/10/12 09:42:15;;;;;;;12.73;9.43;;;7.80;99.90;;;;;;5122968;28;20726;-82
2021/10/12 09:44:51;;;;;;;16.87;9.53;;;7.80;99.90;;;;;;5123339;28;20721;-83
2021/10/12 09:47:17;;;;;;;9.77;7.27;;;7.80;99.90;;;;;;5123063;28;20164;-83
2021/10/12 09:49:43;;;;;;;8.80;6.60;;;7.80;99.90;;;;;;5122452;28;20282;-83
2021/10/12 09:52:14;;;;;;;10.13;7.87;;;7.80;99.90;;;;;;5123225;28;20241;-83
2021/10/12 09:54:47;;;;;;;9.00;7.70;;;7.90;99.90;;;;;;5123821;28;20184;-83
2021/10/12 09:57:13;;;;;;;10.63;7.70;;;7.90;99.90;;;;;;5123122;28;20189;-83
2021/10/12 09:59:39;;;;;;;12.40;8.30;;;7.90;99.90;;;;;;5122824;28;20224;-82
2021/10/12 10:02:07;;;;;;;10.93;7.60;;;8.00;99.90;;;;;;5123980;28;20190;-83
2021/10/12 10:04:33;;;;;;;9.47;7.27;;;8.10;99.90;;;;;;5124205;28;20178;-83
2021/10/12 10:07:09;;;;;;;14.50;8.17;;;8.00;99.90;;;;;;5123053;28;20665;-83
2021/10/12 10:09:36;;;;;;;12.00;8.77;;;7.90;99.90;;;;;;5124711;28;20210;-82
2021/10/12 10:12:06;;;;;;;11.77;8.20;;;8.00;99.90;;;;;;5124768;28;20172;-83
2021/10/12 10:14:33;;;;;;;10.33;7.73;;;8.00;99.90;;;;;;5122356;28;20535;-82
2021/10/12 10:17:00;;;;;;;11.90;9.30;;;8.00;99.90;;;;;;5123398;28;20673;-83
2021/10/12 10:19:29;;;;;;;14.20;9.23;;;8.00;99.90;;;;;;5121862;28;20229;-82
2021/10/12 10:21:55;;;;;;;9.90;8.73;;;8.00;99.90;;;;;;5121664;28;20195;-82
2021/10/12 10:24:43;;;;;;;12.63;8.07;;;7.90;99.90;;;;;;5122362;28;20169;-82
2021/10/12 10:27:31;;;;;;;10.97;7.90;;;8.00;99.90;;;;;;5123276;28;20172;-83
2021/10/12 10:30:21;;;;;;;12.40;9.37;;;8.00;99.90;;;;;;5125662;28;20253;-82
2021/10/12 10:32:48;;;;;;;13.17;8.80;;;8.00;99.90;;;;;;5123591;28;20595;-82
2021/10/12 10:35:14;;;;;;;10.10;7.60;;;8.00;99.90;;;;;;5125449;28;20291;-82
2021/10/12 10:37:41;;;;;;;10.90;7.67;;;8.10;99.90;;;;;;5125871;28;20206;-82
2021/10/12 10:40:25;;;;;;;11.13;6.47;;;8.20;99.90;;;;;;5125587;28;20192;-82
2021/10/12 10:42:53;;;;;;;7.53;6.20;;;8.20;99.90;;;;;;5125028;28;20181;-82
2021/10/12 10:45:19;;;;;;;9.83;6.50;;;8.30;99.90;;;;;;5124438;28;20180;-82
2021/10/12 10:47:44;;;;;;;7.73;6.60;;;8.50;99.90;;;;;;5123970;28;20180;-82
2021/10/12 10:50:30;;;;;;;9.20;5.80;;;8.50;99.90;;;;;;5124002;28;20683;-82
2021/10/12 10:52:58;;;;;;;8.43;5.73;;;8.50;99.90;;;;;;5124139;28;20172;-83
2021/10/12 10:55:29;;;;;;;8.47;5.23;;;8.60;99.90;;;;;;5125359;28;20196;-82
2021/10/12 10:58:13;;;;;;;8.97;5.63;;;8.50;99.90;;;;;;5125016;28;20205;-82
2021/10/12 11:00:42;;;;;;;7.30;5.53;;;8.50;99.90;;;;;;5125566;28;20642;-82
2021/10/12 11:03:29;;;;;;;9.77;6.80;;;8.40;99.90;;;;;;5129034;28;20170;-81
2021/10/12 11:05:56;;;;;;;9.07;5.63;;;8.40;99.90;;;;;;5132514;28;20176;-81
2021/10/12 11:08:23;;;;;;;11.07;6.63;;;8.40;99.90;;;;;;5132779;28;20174;-82
2021/10/12 11:10:59;;;;;;;12.67;8.07;;;8.50;99.90;;;;;;5132154;28;20200;-81
2021/10/12 11:13:35;;;;;;;10.57;7.17;;;8.50;99.90;;;;;;5132756;28;20189;-81
2021/10/12 11:16:06;;;;;;;12.03;8.00;;;8.40;99.90;;;;;;5132036;28;20195;-82
2021/10/12 11:18:31;;;;;;;11.50;7.50;;;8.30;99.90;;;;;;5122893;28;20204;-82
2021/10/12 11:21:02;;;;;;;11.80;7.70;;;8.30;99.90;;;;;;5123688;28;20184;-82
2021/10/12 11:23:33;;;;;;;15.67;8.23;;;8.30;99.90;;;;;;5122784;28;20187;-82
2021/10/12 11:26:04;;;;;;;13.83;8.67;;;8.30;99.90;;;;;;5123855;28;20578;-82
2021/10/12 11:28:32;;;;;;;12.93;8.07;;;8.40;99.90;;;;;;5124102;28;20196;-82
2021/10/12 11:31:11;;;;;;;18.23;9.87;;;8.50;99.90;;;;;;5122759;28;20685;-82
2021/10/12 11:33:36;;;;;;;15.30;10.40;;;8.50;99.90;;;;;;5122435;28;20193;-82
2021/10/12 11:36:04;;;;;;;13.10;9.53;;;8.60;99.90;;;;;;5123690;28;20309;-82
2021/10/12 11:38:37;;;;;;;17.13;10.27;;;8.60;99.90;;;;;;5124588;28;20192;-82
2021/10/12 11:41:20;;;;;;;14.03;11.17;;;8.60;99.90;;;;;;5123232;28;20168;-81
2021/10/12 11:43:47;;;;;;;17.00;10.87;;;8.60;99.90;;;;;;5123657;28;20184;-81
2021/10/12 11:46:22;;;;;;;15.17;10.93;;;8.60;99.90;;;;;;5122562;28;20266;-81
2021/10/12 11:48:48;;;;;;;13.33;9.60;;;8.60;99.90;;;;;;5122823;28;20192;-81
2021/10/12 11:51:26;;;;;;;16.50;10.70;;;8.50;99.90;;;;;;5122244;28;20181;-81
2021/10/12 11:53:54;;;;;;;15.00;10.87;;;8.40;99.90;;;;;;5122518;28;20166;-82
2021/10/12 11:56:21;;;;;;;13.50;9.80;;;8.30;99.90;;;;;;5119688;28;20203;-82
2021/10/12 11:58:48;;;;;;;14.53;10.53;;;8.40;99.90;;;;;;5119253;28;20282;-83
2021/10/12 12:01:27;;;;;;;15.10;10.30;;;8.30;99.90;;;;;;5119632;28;20170;-83
2021/10/12 12:03:53;;;;;;;16.57;9.80;;;8.30;99.90;;;;;;5117912;28;20237;-84
2021/10/12 12:06:24;;;;;;;15.53;9.83;;;8.30;99.90;;;;;;5116072;28;20178;-83
2021/10/12 12:08:52;;;;;;;13.23;9.37;;;8.30;99.90;;;;;;5115303;28;20196;-83
2021/10/12 12:11:22;;;;;;;16.33;9.20;;;8.30;99.90;;;;;;5119367;28;20173;-83
2021/10/12 12:13:49;;;;;;;11.27;8.77;;;8.30;99.90;;;;;;5123053;28;20153;-84
2021/10/12 12:16:18;;;;;;;12.97;9.57;;;8.20;99.90;;;;;;5121958;28;20201;-83
2021/10/12 12:18:44;;;;;;;13.10;9.67;;;8.20;99.90;;;;;;5123620;28;20181;-85
2021/10/12 12:21:10;;;;;;;15.13;9.47;;;8.20;99.90;;;;;;5122820;28;20178;-83
2021/10/12 12:23:47;;;;;;;14.40;9.53;;;8.30;99.90;;;;;;5124924;28;20176;-86
2021/10/12 12:26:23;;;;;;;19.97;13.83;;;8.30;99.90;;;;;;5125960;28;20232;-83
2021/10/12 12:28:49;;;;;;;19.07;11.37;;;8.20;99.90;;;;;;5124463;28;20195;-87
2021/10/12 12:31:23;;;;;;;23.97;19.33;;;8.20;99.90;;;;;;5128703;28;20269;-85
2021/10/12 12:33:51;;;;;;;14.47;10.63;;;8.20;99.90;;;;;;5126636;28;20201;-81
2021/10/12 12:36:19;;;;;;;14.03;10.53;;;8.20;99.90;;;;;;5125132;28;20228;-82
2021/10/12 12:38:45;;;;;;;14.33;11.03;;;8.20;99.90;;;;;;5126903;28;20227;-83
2021/10/12 12:41:22;;;;;;;16.60;10.30;;;8.20;99.90;;;;;;5126344;28;20176;-83
2021/10/12 12:43:58;;;;;;;17.40;10.20;;;8.30;99.90;;;;;;5126828;28;20208;-82